Time;durP1;ratioP1;P1;durP2;ratioP2;P2;SDS_P1;SDS_P2;PMS_P1;PMS_P2;Temp;Humidity;BMP_temperature;BMP_pressure;BME280_temperature;BME280_humidity;BME280_pressure;Samples;Min_cycle;Max_cycle;Signal;HPM_P1;HPM_P2
2021/11/15 00:00:57;;;;;;;0.20;0.20;;;;;;;7.76;77.43;102916.03;5061541;28;20051;-72
2021/11/15 00:03:25;;;;;;;0.20;0.20;;;;;;;7.74;76.86;102915.03;5061204;28;20048;-71
2021/11/15 00:05:50;;;;;;;0.20;0.20;;;;;;;7.74;77.39;102912.44;5061943;28;20071;-71
2021/11/15 00:08:16;;;;;;;0.40;0.40;;;;;;;7.75;77.19;102897.66;5078824;28;20035;-72
2021/11/15 00:10:41;;;;;;;0.10;0.10;;;;;;;7.75;77.53;102910.69;5079246;28;20021;-71
2021/11/15 00:13:07;;;;;;;0.20;0.20;;;;;;;7.75;77.40;102909.03;5078988;28;20034;-71
2021/11/15 00:15:33;;;;;;;0.67;0.67;;;;;;;7.75;77.27;102905.50;5077522;28;20043;-73
2021/11/15 00:17:59;;;;;;;0.10;0.10;;;;;;;7.75;78.09;102909.03;5078333;28;20012;-71
2021/11/15 00:20:25;;;;;;;0.40;0.40;;;;;;;7.74;77.78;102915.03;5078635;28;20075;-71
2021/11/15 00:22:50;;;;;;;0.23;0.23;;;;;;;7.73;77.56;102912.31;5061528;28;20072;-72
2021/11/15 00:25:16;;;;;;;0.10;0.10;;;;;;;7.72;77.36;102907.88;5061322;28;20063;-72
2021/11/15 00:27:41;;;;;;;0.30;0.30;;;;;;;7.73;77.77;102912.31;5078881;28;20036;-72
2021/11/15 00:30:10;;;;;;;0.20;0.20;;;;;;;7.74;76.96;102912.44;5078709;28;20020;-71
2021/11/15 00:32:36;;;;;;;0.30;0.30;;;;;;;7.73;78.14;102913.22;5079057;28;20077;-72
2021/11/15 00:35:01;;;;;;;0.20;0.20;;;;;;;7.74;78.09;102908.91;5077980;28;20392;-71
2021/11/15 00:37:27;;;;;;;0.30;0.30;;;;;;;7.72;77.42;102907.88;5061270;28;20035;-72
2021/11/15 00:39:52;;;;;;;0.17;0.17;;;;;;;7.72;78.04;102910.50;5077830;28;20409;-72
2021/11/15 00:42:18;;;;;;;0.33;0.33;;;;;;;7.69;77.24;102906.88;5078513;28;20107;-71
2021/11/15 00:44:43;;;;;;;0.30;0.30;;;;;;;7.68;76.85;102906.75;5076529;28;20290;-71
2021/11/15 00:47:09;;;;;;;0.30;0.30;;;;;;;7.68;77.37;102904.16;5078385;28;20024;-72
2021/11/15 00:49:35;;;;;;;0.20;0.20;;;;;;;7.67;77.19;102902.34;5059454;28;20458;-72
2021/11/15 00:52:00;;;;;;;0.20;0.20;;;;;;;7.67;77.38;102894.50;5078409;28;20095;-72
2021/11/15 00:54:26;;;;;;;0.10;0.10;;;;;;;7.67;77.89;102897.13;5077532;28;20107;-72
2021/11/15 00:56:52;;;;;;;0.50;0.50;;;;;;;7.67;78.61;102898.00;5060977;28;20440;-72
2021/11/15 00:59:17;;;;;;;0.33;0.33;;;;;;;7.65;77.66;102894.38;5042117;28;20043;-72
2021/11/15 01:01:42;;;;;;;0.20;0.20;;;;;;;7.65;77.77;102894.38;5078337;28;20074;-72
2021/11/15 01:04:08;;;;;;;0.20;0.20;;;;;;;7.65;78.16;102898.72;5076002;28;20020;-71
2021/11/15 01:06:33;;;;;;;0.40;0.40;;;;;;;7.65;77.96;102896.09;5078079;28;20047;-72
2021/11/15 01:08:59;;;;;;;0.30;0.30;;;;;;;7.64;77.62;102896.88;5076543;28;20032;-72
2021/11/15 01:11:25;;;;;;;0.20;0.20;;;;;;;7.63;77.85;102897.66;5078634;28;20379;-73
2021/11/15 01:13:51;;;;;;;0.60;0.60;;;;;;;7.62;77.58;102888.03;5077980;28;20398;-71
2021/11/15 01:16:16;;;;;;;0.40;0.40;;;;;;;7.61;77.80;102894.97;5077780;28;20031;-72
2021/11/15 01:18:43;;;;;;;0.23;0.23;;;;;;;7.62;78.09;102893.25;5077243;28;20017;-73
2021/11/15 01:21:10;;;;;;;0.30;0.30;;;;;;;7.62;77.36;102896.78;5077902;28;20081;-71
2021/11/15 01:23:36;;;;;;;0.30;0.30;;;;;;;7.62;77.63;102895.88;5077686;28;20391;-72
2021/11/15 01:26:02;;;;;;;0.20;0.20;;;;;;;7.60;78.33;102889.63;5059986;28;20066;-72
2021/11/15 01:28:28;;;;;;;0.30;0.30;;;;;;;7.58;77.07;102892.13;5060519;28;20051;-71
2021/11/15 01:30:53;;;;;;;0.27;0.27;;;;;;;7.58;76.40;102886.91;5076888;28;20129;-72
2021/11/15 01:33:18;;;;;;;0.27;0.27;;;;;;;7.57;76.61;102882.50;5077427;28;20036;-73
2021/11/15 01:35:44;;;;;;;0.20;0.20;;;;;;;7.56;76.37;102876.34;5077914;28;20055;-73
2021/11/15 01:38:10;;;;;;;0.20;0.20;;;;;;;7.56;76.87;102884.19;5059568;28;20025;-72
2021/11/15 01:40:35;;;;;;;0.20;0.20;;;;;;;7.56;77.41;102875.47;5060300;28;20033;-72
2021/11/15 01:43:02;;;;;;;0.20;0.20;;;;;;;7.56;77.33;102881.56;5076925;28;20055;-72
2021/11/15 01:45:29;;;;;;;0.30;0.30;;;;;;;7.54;76.56;102877.06;5075788;28;20020;-71
2021/11/15 01:47:58;;;;;;;0.20;0.20;;;;;;;7.53;75.90;102873.53;5076215;28;20036;-73
2021/11/15 01:50:24;;;;;;;0.20;0.20;;;;;;;7.54;76.05;102875.34;5058180;28;20024;-71
2021/11/15 01:52:50;;;;;;;0.30;0.30;;;;;;;7.54;76.39;102877.94;5061928;28;20024;-72
2021/11/15 01:55:18;;;;;;;0.30;0.30;;;;;;;7.54;76.64;102879.66;5076895;28;20025;-72
2021/11/15 01:57:44;;;;;;;0.20;0.20;;;;;;;7.52;76.48;102879.56;5059818;28;20025;-71
2021/11/15 02:00:30;;;;;;;0.30;0.30;;;;;;;7.52;76.59;102879.56;5076439;28;20033;-72
2021/11/15 02:02:56;;;;;;;0.20;0.20;;;;;;;7.53;76.45;102883.97;5076674;28;20374;-72
2021/11/15 02:05:22;;;;;;;0.20;0.20;;;;;;;7.54;77.79;102887.50;5076828;28;20044;-73
2021/11/15 02:07:47;;;;;;;0.20;0.20;;;;;;;7.51;77.84;102882.94;5077436;28;20298;-72
2021/11/15 02:10:14;;;;;;;0.87;0.60;;;;;;;7.52;78.98;102884.75;5076629;28;20379;-72
2021/11/15 02:12:39;;;;;;;0.20;0.20;;;;;;;7.49;77.71;102881.03;5077204;28;20085;-73
2021/11/15 02:15:08;;;;;;;0.20;0.20;;;;;;;7.46;76.66;102878.19;5059304;28;20371;-71
2021/11/15 02:17:33;;;;;;;0.20;0.20;;;;;;;7.46;77.96;102878.19;5077274;28;20094;-71
2021/11/15 02:20:08;;;;;;;0.20;0.20;;;;;;;7.47;78.36;102885.22;5075900;28;20410;-71
2021/11/15 02:22:34;;;;;;;0.20;0.20;;;;;;;7.46;78.16;102876.47;5076877;28;20035;-72
2021/11/15 02:25:00;;;;;;;0.20;0.20;;;;;;;7.43;76.11;102877.16;5076268;28;20059;-72
2021/11/15 02:27:26;;;;;;;0.30;0.30;;;;;;;7.45;75.86;102877.28;5076356;28;20031;-72
2021/11/15 02:29:52;;;;;;;0.30;0.30;;;;;;;7.46;76.50;102880.81;5076861;28;20024;-72
2021/11/15 02:32:17;;;;;;;0.20;0.20;;;;;;;7.47;77.09;102877.41;5077058;28;20283;-71
2021/11/15 02:34:42;;;;;;;0.30;0.30;;;;;;;7.45;76.43;102881.56;5076222;28;20350;-73
2021/11/15 02:37:08;;;;;;;0.20;0.20;;;;;;;7.43;76.25;102879.75;5076795;28;20306;-72
2021/11/15 02:39:33;;;;;;;0.40;0.40;;;;;;;7.45;77.48;102881.56;5075931;28;20040;-72
2021/11/15 02:41:59;;;;;;;0.27;0.27;;;;;;;7.43;77.79;102871.06;5074743;28;20030;-72
2021/11/15 02:44:26;;;;;;;0.40;0.40;;;;;;;7.42;76.82;102871.84;5076396;28;20033;-71
2021/11/15 02:46:51;;;;;;;0.20;0.20;;;;;;;7.41;77.30;102868.31;5076592;28;20024;-72
2021/11/15 02:49:17;;;;;;;0.20;0.20;;;;;;;7.40;77.31;102863.91;5076410;28;20037;-72
2021/11/15 02:51:42;;;;;;;0.20;0.20;;;;;;;7.40;77.70;102868.19;5076986;28;20025;-72
2021/11/15 02:54:07;;;;;;;1.40;1.40;;;;;;;7.40;77.78;102863.00;5076167;28;20302;-72
2021/11/15 02:56:35;;;;;;;0.20;0.20;;;;;;;7.41;78.36;102870.03;5058751;28;20037;-72
2021/11/15 02:59:00;;;;;;;0.30;0.30;;;;;;;7.39;78.01;102867.31;5058893;28;20027;-71
2021/11/15 03:01:26;;;;;;;0.30;0.30;;;;;;;7.38;76.60;102867.19;5076324;28;20020;-73
2021/11/15 03:03:51;;;;;;;0.20;0.20;;;;;;;7.37;77.05;102868.00;5058433;28;20032;-72
2021/11/15 03:06:17;;;;;;;0.30;0.30;;;;;;;7.37;77.36;102868.00;5077042;28;20042;-72
2021/11/15 03:08:42;;;;;;;0.20;0.20;;;;;;;7.37;76.91;102862.78;5075703;28;20034;-72
2021/11/15 03:11:08;;;;;;;0.20;0.20;;;;;;;7.37;77.79;102861.09;5059060;28;20017;-73
2021/11/15 03:13:42;;;;;;;0.20;0.20;;;;;;;7.37;78.34;102868.91;5079346;28;20402;-72
2021/11/15 03:16:07;;;;;;;0.10;0.10;;;;;;;7.36;77.73;102868.78;5080059;28;20025;-72
2021/11/15 03:18:35;;;;;;;0.23;0.23;;;;;;;7.35;77.19;102867.88;5079799;28;20083;-71
2021/11/15 03:21:18;;;;;;;0.20;0.20;;;;;;;7.35;76.47;102866.97;5079827;28;20437;-71
2021/11/15 03:23:47;;;;;;;0.20;0.20;;;;;;;7.34;76.21;102871.28;5079830;28;20024;-71
2021/11/15 03:26:13;;;;;;;0.20;0.20;;;;;;;7.34;75.96;102873.00;5079474;28;20333;-71
2021/11/15 03:28:41;;;;;;;0.20;0.20;;;;;;;7.33;75.70;102865.97;5062529;28;20024;-72
2021/11/15 03:31:16;;;;;;;0.20;0.20;;;;;;;7.34;76.13;102871.28;5079302;28;20033;-72
2021/11/15 03:33:42;;;;;;;0.30;0.30;;;;;;;7.33;75.73;102869.47;5079741;28;20108;-72
2021/11/15 03:36:08;;;;;;;0.20;0.20;;;;;;;7.35;75.73;102864.38;5080191;28;20052;-72
2021/11/15 03:38:34;;;;;;;0.30;0.30;;;;;;;7.34;76.14;102868.66;5079184;28;20352;-72
2021/11/15 03:40:59;;;;;;;0.20;0.20;;;;;;;7.33;76.58;102871.19;5079531;28;20351;-72
2021/11/15 03:43:25;;;;;;;0.60;0.60;;;;;;;7.34;76.44;102865.16;5079150;28;20066;-72
2021/11/15 03:45:50;;;;;;;0.30;0.30;;;;;;;7.30;76.52;102861.44;5078753;28;20025;-71
2021/11/15 03:48:16;;;;;;;0.10;0.10;;;;;;;7.29;75.70;102862.22;5078381;28;20097;-72
2021/11/15 03:50:42;;;;;;;0.20;0.20;;;;;;;7.29;75.67;102867.44;5079773;28;20020;-71
2021/11/15 03:53:10;;;;;;;0.20;0.20;;;;;;;7.27;75.81;102867.31;5079320;28;20029;-70
2021/11/15 03:55:35;;;;;;;0.30;0.30;;;;;;;7.27;75.64;102872.53;5079010;28;20086;-72
2021/11/15 03:58:01;;;;;;;0.20;0.20;;;;;;;7.25;75.62;102874.13;5079043;28;20454;-73
2021/11/15 04:00:30;;;;;;;0.27;0.27;;;;;;;7.26;75.87;102869.78;5079211;28;20413;-71
2021/11/15 04:03:01;;;;;;;0.10;0.10;;;;;;;7.26;76.73;102867.19;5078852;28;20016;-72
2021/11/15 04:05:29;;;;;;;0.30;0.30;;;;;;;7.25;76.57;102875.81;5079446;28;20024;-72
2021/11/15 04:07:55;;;;;;;0.40;0.40;;;;;;;7.23;76.82;102862.66;5078868;28;20032;-71
2021/11/15 04:10:24;;;;;;;0.20;0.20;;;;;;;7.24;76.30;102864.47;5079314;28;20027;-71
2021/11/15 04:12:51;;;;;;;0.60;0.60;;;;;;;7.25;75.33;102873.19;5061885;28;20120;-73
2021/11/15 04:15:16;;;;;;;0.30;0.30;;;;;;;7.21;75.61;102874.66;5061924;28;20036;-72
2021/11/15 04:17:44;;;;;;;0.30;0.30;;;;;;;7.22;75.85;102872.97;5062135;28;20035;-72
2021/11/15 04:20:14;;;;;;;0.20;0.20;;;;;;;7.21;75.77;102873.78;5044204;28;20154;-72
2021/11/15 04:22:39;;;;;;;0.20;0.20;;;;;;;7.19;75.77;102872.72;5078809;28;20115;-72
2021/11/15 04:25:06;;;;;;;0.27;0.27;;;;;;;7.20;75.69;102872.84;5078411;28;20406;-71
2021/11/15 04:27:32;;;;;;;0.27;0.27;;;;;;;7.19;76.89;102871.03;5079230;28;20032;-72
2021/11/15 04:29:57;;;;;;;0.20;0.20;;;;;;;7.19;76.84;102867.53;5078381;28;20021;-72
2021/11/15 04:32:23;;;;;;;0.20;0.20;;;;;;;7.18;77.63;102869.25;5079169;28;20024;-72
2021/11/15 04:34:48;;;;;;;0.20;0.20;;;;;;;7.17;77.33;102867.44;5078319;28;20036;-72
2021/11/15 04:37:13;;;;;;;0.20;0.20;;;;;;;7.17;77.00;102874.31;5078722;28;20104;-72
2021/11/15 04:39:39;;;;;;;0.20;0.20;;;;;;;7.18;78.12;102865.72;5077905;28;20028;-71
2021/11/15 04:42:04;;;;;;;0.20;0.20;;;;;;;7.17;77.48;102872.63;5060692;28;20386;-72
2021/11/15 04:44:30;;;;;;;0.20;0.20;;;;;;;7.17;77.32;102867.44;5078155;28;20337;-72
2021/11/15 04:46:55;;;;;;;0.30;0.30;;;;;;;7.14;77.36;102870.72;5078189;28;20098;-72
2021/11/15 04:49:21;;;;;;;0.30;0.30;;;;;;;7.15;77.54;102867.31;5076952;28;20310;-74
2021/11/15 04:51:46;;;;;;;0.20;0.20;;;;;;;7.17;77.68;102871.72;5078812;28;20111;-72
2021/11/15 04:54:14;;;;;;;0.20;0.20;;;;;;;7.16;77.66;102868.19;5060404;28;20323;-73
2021/11/15 04:56:40;;;;;;;0.20;0.20;;;;;;;7.15;77.82;102869.91;5078053;28;20111;-72
2021/11/15 04:59:05;;;;;;;0.20;0.20;;;;;;;7.17;78.04;102875.25;5077969;28;20232;-72
2021/11/15 05:01:31;;;;;;;0.20;0.20;;;;;;;7.20;78.07;102874.53;5078382;28;20043;-71
2021/11/15 05:03:56;;;;;;;0.20;0.20;;;;;;;7.17;77.96;102876.94;5077717;28;20042;-73
2021/11/15 05:06:22;;;;;;;0.20;0.20;;;;;;;7.14;78.63;102875.00;5078400;28;20397;-70
2021/11/15 05:08:48;;;;;;;0.67;0.67;;;;;;;7.12;78.56;102879.19;5077097;28;20287;-71
2021/11/15 05:11:13;;;;;;;0.30;0.30;;;;;;;7.11;78.16;102882.59;5060741;28;20036;-72
2021/11/15 05:13:39;;;;;;;0.30;0.30;;;;;;;7.12;78.91;102873.97;5077996;28;20063;-71
2021/11/15 05:16:04;;;;;;;0.30;0.30;;;;;;;7.11;78.92;102874.78;5077729;28;20032;-70
2021/11/15 05:18:30;;;;;;;0.20;0.20;;;;;;;7.11;78.51;102869.56;5077383;28;20023;-71
2021/11/15 05:20:55;;;;;;;0.10;0.10;;;;;;;7.08;79.05;102874.53;5077329;28;20356;-71
2021/11/15 05:23:20;;;;;;;0.20;0.20;;;;;;;7.07;78.66;102872.72;5078019;28;20028;-72
2021/11/15 05:25:46;;;;;;;0.30;0.30;;;;;;;7.07;78.54;102865.81;5077207;28;20426;-71
2021/11/15 05:28:11;;;;;;;0.30;0.30;;;;;;;7.05;78.58;102875.22;5077026;28;20024;-72
2021/11/15 05:30:37;;;;;;;0.20;0.20;;;;;;;7.07;78.50;102881.44;5077742;28;20024;-69
2021/11/15 05:33:03;;;;;;;0.10;0.10;;;;;;;7.04;78.02;102875.09;5076447;28;20041;-71
2021/11/15 05:35:29;;;;;;;0.20;0.20;;;;;;;7.01;79.10;102881.91;5077430;28;20416;-71
2021/11/15 05:37:56;;;;;;;0.20;0.20;;;;;;;7.00;78.69;102889.59;5076849;28;20028;-72
2021/11/15 05:40:23;;;;;;;0.20;0.20;;;;;;;6.98;78.77;102881.66;5058930;28;20032;-70
2021/11/15 05:42:49;;;;;;;0.20;0.20;;;;;;;6.98;78.98;102886.84;5077565;28;20020;-71
2021/11/15 05:45:16;;;;;;;0.20;0.20;;;;;;;6.97;78.69;102892.88;5076034;28;20111;-71
2021/11/15 05:47:42;;;;;;;0.10;0.10;;;;;;;6.96;78.55;102888.44;5060319;28;20260;-70
2021/11/15 05:50:08;;;;;;;0.10;0.10;;;;;;;6.95;79.02;102894.47;5075932;28;20119;-70
2021/11/15 05:52:39;;;;;;;0.23;0.23;;;;;;;6.95;77.84;102886.66;5077022;28;20054;-71
2021/11/15 05:55:05;;;;;;;0.17;0.17;;;;;;;6.94;78.20;102891.72;5076831;28;20032;-71
2021/11/15 05:57:30;;;;;;;0.20;0.20;;;;;;;6.94;78.15;102884.84;5077427;28;20028;-72
2021/11/15 05:59:55;;;;;;;0.23;0.23;;;;;;;6.94;78.29;102877.03;5076676;28;20115;-72
2021/11/15 06:02:21;;;;;;;0.30;0.30;;;;;;;6.93;78.26;102892.53;5059883;28;20405;-71
2021/11/15 06:04:46;;;;;;;0.20;0.20;;;;;;;6.92;78.40;102894.19;5076573;28;20094;-72
2021/11/15 06:07:11;;;;;;;0.20;0.20;;;;;;;6.91;78.14;102895.00;5076384;28;20361;-71
2021/11/15 06:09:37;;;;;;;0.20;0.20;;;;;;;6.90;78.16;102892.31;5077314;28;20020;-71
2021/11/15 06:12:02;;;;;;;0.30;0.30;;;;;;;6.88;77.98;102886.97;5077044;28;20024;-71
2021/11/15 06:14:28;;;;;;;0.20;0.20;;;;;;;6.89;78.30;102895.69;5077310;28;20035;-71
2021/11/15 06:16:53;;;;;;;0.10;0.10;;;;;;;6.89;78.06;102890.50;5059170;28;20024;-71
2021/11/15 06:19:18;;;;;;;0.20;0.20;;;;;;;6.87;77.85;102898.16;5076605;28;20260;-72
2021/11/15 06:21:44;;;;;;;0.20;0.20;;;;;;;6.87;78.15;102904.28;5076876;28;20127;-72
2021/11/15 06:24:09;;;;;;;0.20;0.20;;;;;;;6.89;78.26;102901.78;5075991;28;20048;-71
2021/11/15 06:26:34;;;;;;;0.20;0.20;;;;;;;6.88;78.42;102902.59;5076862;28;20055;-71
2021/11/15 06:29:00;;;;;;;0.20;0.20;;;;;;;6.87;78.60;102896.47;5058886;28;20032;-71
2021/11/15 06:31:25;;;;;;;0.30;0.30;;;;;;;6.87;78.95;102895.56;5077215;28;20031;-72
2021/11/15 06:33:52;;;;;;;0.10;0.10;;;;;;;6.89;78.73;102900.91;5076834;28;20370;-72
2021/11/15 06:36:18;;;;;;;0.10;0.10;;;;;;;6.87;78.55;102900.78;5076456;28;20115;-71
2021/11/15 06:38:44;;;;;;;0.20;0.20;;;;;;;6.86;78.17;102907.66;5076621;28;20021;-72
2021/11/15 06:41:09;;;;;;;0.30;0.30;;;;;;;6.84;78.20;102897.91;5076110;28;20056;-71
2021/11/15 06:43:35;;;;;;;0.20;0.20;;;;;;;6.82;78.04;102896.91;5075623;28;20279;-71
2021/11/15 06:46:00;;;;;;;0.23;0.23;;;;;;;6.83;77.79;102898.72;5075148;28;20060;-72
2021/11/15 06:48:25;;;;;;;0.20;0.20;;;;;;;6.81;78.39;102895.09;5078660;28;20052;-71
2021/11/15 06:50:51;;;;;;;0.20;0.20;;;;;;;6.81;78.58;102897.69;5080744;28;20039;-70
2021/11/15 06:53:17;;;;;;;0.23;0.23;;;;;;;6.77;77.49;102895.66;5080541;28;20033;-71
2021/11/15 06:55:43;;;;;;;0.20;0.20;;;;;;;6.77;77.72;102890.47;5080666;28;20036;-70
2021/11/15 06:58:08;;;;;;;0.20;0.20;;;;;;;6.73;77.68;102892.81;5079434;28;20044;-71
2021/11/15 07:00:34;;;;;;;0.30;0.30;;;;;;;6.72;77.68;102892.69;5080599;28;20070;-71
2021/11/15 07:02:59;;;;;;;0.47;0.47;;;;;;;6.72;77.91;102905.69;5078567;28;20319;-72
2021/11/15 07:05:25;;;;;;;0.20;0.20;;;;;;;6.73;78.06;102903.22;5079440;28;20043;-71
2021/11/15 07:07:51;;;;;;;0.20;0.20;;;;;;;6.73;78.46;102911.03;5079732;28;20043;-71
2021/11/15 07:10:18;;;;;;;0.20;0.20;;;;;;;6.75;78.83;102918.97;5078745;28;20052;-72
2021/11/15 07:12:44;;;;;;;0.20;0.20;;;;;;;6.74;78.20;102922.38;5080169;28;20379;-72
2021/11/15 07:15:10;;;;;;;0.20;0.20;;;;;;;6.74;78.67;102924.97;5080065;28;20024;-72
2021/11/15 07:17:35;;;;;;;0.20;0.20;;;;;;;6.74;78.88;102935.38;5080451;28;20032;-72
2021/11/15 07:20:01;;;;;;;0.20;0.20;;;;;;;6.74;78.19;102931.06;5078599;28;20057;-71
2021/11/15 07:22:27;;;;;;;0.20;0.20;;;;;;;6.72;78.23;102926.53;5080889;28;20107;-71
2021/11/15 07:24:52;;;;;;;0.10;0.10;;;;;;;6.71;78.33;102933.44;5079908;28;20029;-71
2021/11/15 07:27:17;;;;;;;0.10;0.10;;;;;;;6.73;78.77;102938.78;5080314;28;20052;-71
2021/11/15 07:29:43;;;;;;;0.10;0.10;;;;;;;6.72;78.32;102931.72;5080005;28;20025;-71
2021/11/15 07:32:12;;;;;;;0.13;0.13;;;;;;;6.70;78.46;102934.25;5079451;28;20398;-71
2021/11/15 07:34:38;;;;;;;0.20;0.20;;;;;;;6.70;78.48;102938.53;5079588;28;20365;-71
2021/11/15 07:37:04;;;;;;;0.20;0.20;;;;;;;6.69;78.54;102935.03;5079668;28;20120;-72
2021/11/15 07:39:29;;;;;;;0.20;0.20;;;;;;;6.71;78.22;102935.13;5079881;28;20450;-71
2021/11/15 07:41:55;;;;;;;0.40;0.40;;;;;;;6.71;78.08;102932.53;5078780;28;20085;-71
2021/11/15 07:44:20;;;;;;;0.10;0.10;;;;;;;6.73;78.77;102930.97;5078825;28;20075;-71
2021/11/15 07:46:48;;;;;;;0.37;0.37;;;;;;;6.69;78.64;102932.44;5078781;28;20071;-72
2021/11/15 07:49:13;;;;;;;0.20;0.20;;;;;;;6.70;78.61;102928.09;5077309;28;20103;-72
2021/11/15 07:51:39;;;;;;;0.23;0.23;;;;;;;6.68;78.45;102930.63;5078372;28;20178;-71
2021/11/15 07:54:04;;;;;;;0.20;0.20;;;;;;;6.70;78.89;102941.13;5078392;28;20306;-70
2021/11/15 07:56:29;;;;;;;0.20;0.20;;;;;;;6.71;78.88;102932.53;5061198;28;20028;-71
2021/11/15 07:58:55;;;;;;;0.20;0.20;;;;;;;6.73;78.49;102934.47;5077727;28;20477;-71
2021/11/15 08:01:20;;;;;;;0.20;0.20;;;;;;;6.72;78.78;102926.53;5078515;28;20039;-72
2021/11/15 08:03:45;;;;;;;0.20;0.20;;;;;;;6.70;78.79;102923.81;5077875;28;20118;-71
2021/11/15 08:06:15;;;;;;;0.23;0.23;;;;;;;6.69;78.75;102924.63;5077895;28;20328;-70
2021/11/15 08:08:40;;;;;;;0.10;0.10;;;;;;;6.67;78.36;102923.56;5078336;28;20032;-69
2021/11/15 08:11:07;;;;;;;0.20;0.20;;;;;;;6.65;78.67;102925.16;5078181;28;20398;-71
2021/11/15 08:13:32;;;;;;;0.20;0.20;;;;;;;6.64;78.75;102925.03;5078237;28;20028;-70
2021/11/15 08:15:58;;;;;;;0.20;0.20;;;;;;;6.60;78.63;102927.41;5078130;28;20036;-71
2021/11/15 08:18:23;;;;;;;0.67;0.67;;;;;;;6.59;78.89;102924.66;5077478;28;20398;-71
2021/11/15 08:20:49;;;;;;;0.20;0.20;;;;;;;6.60;78.85;102924.78;5078205;28;20102;-70
2021/11/15 08:23:17;;;;;;;0.10;0.10;;;;;;;6.60;78.59;102923.88;5077565;28;20025;-72
2021/11/15 08:26:21;;;;;;;0.20;0.20;;;;;;;6.61;78.34;102920.50;5060438;28;20032;-70
2021/11/15 08:28:47;;;;;;;0.20;0.20;;;;;;;6.60;78.37;102923.88;5072975;28;20048;-71
2021/11/15 08:31:12;;;;;;;0.20;0.20;;;;;;;6.57;78.57;102928.84;5060327;28;20112;-71
2021/11/15 08:33:38;;;;;;;0.53;0.53;;;;;;;6.57;78.75;102928.84;5043508;28;20367;-72
2021/11/15 08:36:04;;;;;;;0.20;0.20;;;;;;;6.56;78.43;102927.03;5043449;28;20056;-70
2021/11/15 08:38:38;;;;;;;0.20;0.20;;;;;;;6.55;78.51;102922.63;5077366;28;20341;-72
2021/11/15 08:41:03;;;;;;;0.17;0.17;;;;;;;6.53;78.18;102922.50;5031019;28;1304542;-72
2021/11/15 08:43:29;;;;;;;0.20;0.20;;;;;;;6.52;78.31;102919.75;5078781;28;20104;-71
2021/11/15 08:45:54;;;;;;;0.10;0.10;;;;;;;6.53;78.62;102914.69;5078464;28;20028;-71
2021/11/15 08:48:20;;;;;;;0.10;0.10;;;;;;;6.54;78.49;102919.09;5060487;28;20036;-69
2021/11/15 08:50:46;;;;;;;0.20;0.20;;;;;;;6.57;78.02;102919.38;5061174;28;20350;-71
2021/11/15 08:53:11;;;;;;;0.20;0.20;;;;;;;6.58;78.89;102918.56;5060931;28;20032;-71
2021/11/15 08:55:37;;;;;;;0.20;0.20;;;;;;;6.60;78.34;102914.38;5078528;28;20028;-70
2021/11/15 08:58:03;;;;;;;0.10;0.10;;;;;;;6.54;78.34;102924.31;5059933;28;20123;-70
2021/11/15 09:00:29;;;;;;;0.20;0.20;;;;;;;6.55;78.36;102920.03;5078626;28;20064;-71
2021/11/15 09:02:55;;;;;;;0.20;0.20;;;;;;;6.56;78.33;102922.75;5077922;28;20084;-71
2021/11/15 09:05:21;;;;;;;0.13;0.13;;;;;;;6.55;78.59;102925.22;5060814;28;20028;-71
2021/11/15 09:07:47;;;;;;;0.10;0.10;;;;;;;6.55;78.65;102920.03;5078567;28;20302;-72
2021/11/15 09:10:14;;;;;;;0.10;0.10;;;;;;;6.53;78.58;102925.09;5076447;28;20334;-72
2021/11/15 09:12:40;;;;;;;0.17;0.17;;;;;;;6.51;78.53;102923.16;5078447;28;20350;-71
2021/11/15 09:15:08;;;;;;;0.20;0.20;;;;;;;6.48;78.79;102916.03;5077793;28;20319;-71
2021/11/15 09:17:34;;;;;;;0.20;0.20;;;;;;;6.50;78.92;102926.56;5078262;28;20028;-69
2021/11/15 09:20:02;;;;;;;0.20;0.20;;;;;;;6.49;79.00;102919.53;5076274;28;20048;-70
2021/11/15 09:22:27;;;;;;;0.20;0.20;;;;;;;6.48;78.89;102920.31;5061227;28;20085;-72
2021/11/15 09:24:53;;;;;;;0.20;0.20;;;;;;;6.43;78.54;102915.66;5077512;28;20028;-72
2021/11/15 09:27:18;;;;;;;0.10;0.10;;;;;;;6.43;78.83;102910.44;5078011;28;20020;-71
2021/11/15 09:29:47;;;;;;;1.03;1.03;;;;;;;6.46;79.09;102912.38;5077778;28;20074;-71
2021/11/15 09:32:13;;;;;;;0.10;0.10;;;;;;;6.50;79.62;102909.25;5043088;28;20031;-71
2021/11/15 09:34:40;;;;;;;0.10;0.10;;;;;;;6.50;79.61;102909.25;5076902;28;20085;-71
2021/11/15 09:37:08;;;;;;;0.10;0.10;;;;;;;6.52;79.13;102911.97;5060413;28;20413;-70
2021/11/15 09:39:33;;;;;;;0.10;0.10;;;;;;;6.55;79.06;102905.28;5077154;28;20298;-69
2021/11/15 09:42:00;;;;;;;0.33;0.33;;;;;;;6.57;78.80;102910.63;5059564;28;20028;-71
2021/11/15 09:44:26;;;;;;;0.10;0.10;;;;;;;6.53;79.23;102916.41;5077623;28;20267;-71
2021/11/15 09:46:51;;;;;;;0.20;0.20;;;;;;;6.51;79.00;102911.06;5077592;28;20024;-71
2021/11/15 09:49:17;;;;;;;0.10;0.10;;;;;;;6.54;78.55;102907.81;5076601;28;20032;-70
2021/11/15 09:51:44;;;;;;;0.23;0.23;;;;;;;6.49;78.54;102901.31;5077559;28;20052;-70
2021/11/15 09:54:11;;;;;;;0.40;0.40;;;;;;;6.45;78.87;102895.88;5058862;28;20045;-71
2021/11/15 09:56:37;;;;;;;0.17;0.17;;;;;;;6.46;79.12;102902.91;5076397;28;20024;-71
2021/11/15 09:59:05;;;;;;;0.10;0.10;;;;;;;6.48;79.66;102895.22;5076180;28;20315;-71
2021/11/15 10:01:30;;;;;;;0.30;0.30;;;;;;;6.50;79.04;102900.53;5077385;28;20042;-72
2021/11/15 10:03:56;;;;;;;0.10;0.10;;;;;;;6.49;78.98;102899.63;5059307;28;20349;-71
2021/11/15 10:06:21;;;;;;;0.37;0.37;;;;;;;6.49;79.04;102902.25;5076591;28;20036;-72
2021/11/15 10:08:52;;;;;;;0.10;0.10;;;;;;;6.53;79.34;102901.66;5077026;28;20029;-71
2021/11/15 10:11:20;;;;;;;0.17;0.17;;;;;;;6.55;79.33;102914.81;5077423;28;20268;-70
2021/11/15 10:13:46;;;;;;;0.10;0.10;;;;;;;6.54;79.02;102905.19;5077255;28;20024;-70
2021/11/15 10:16:12;;;;;;;0.10;0.10;;;;;;;6.54;78.98;102910.41;5059631;28;20032;-71
2021/11/15 10:18:53;;;;;;;0.23;0.23;;;;;;;6.56;79.04;102909.75;5076082;28;20055;-71
2021/11/15 10:21:28;;;;;;;0.10;0.10;;;;;;;6.57;78.94;102908.94;5060279;28;20028;-71
2021/11/15 10:24:16;;;;;;;0.20;0.20;;;;;;;6.58;79.25;102897.75;5076740;28;20103;-71
2021/11/15 10:26:56;;;;;;;0.10;0.10;;;;;;;6.58;79.30;102896.81;5063815;28;20048;-70
2021/11/15 10:29:22;;;;;;;0.20;0.20;;;;;;;6.56;78.96;102901.00;5076409;28;20031;-72
2021/11/15 10:31:53;;;;;;;0.20;0.20;;;;;;;6.56;79.12;102894.13;5077129;28;20032;-70
2021/11/15 10:34:34;;;;;;;0.10;0.10;;;;;;;6.57;79.54;102893.34;5076576;28;20047;-71
2021/11/15 10:37:14;;;;;;;0.10;0.10;;;;;;;6.54;78.67;102893.06;5076169;28;20025;-71
2021/11/15 10:40:11;;;;;;;0.10;0.10;;;;;;;6.53;78.82;102903.38;5075094;28;20337;-72
2021/11/15 10:42:51;;;;;;;0.10;0.10;;;;;;;6.54;78.85;102890.47;5076873;28;20256;-71
2021/11/15 10:45:28;;;;;;;0.20;0.20;;;;;;;6.56;78.90;102912.34;5076360;28;20024;-72
2021/11/15 10:47:59;;;;;;;0.20;0.20;;;;;;;6.53;78.43;102898.19;5058354;28;20024;-72
2021/11/15 10:50:31;;;;;;;0.17;0.17;;;;;;;6.51;78.62;102903.25;5042712;28;20111;-72
2021/11/15 10:53:07;;;;;;;0.20;0.20;;;;;;;6.50;78.88;102903.13;5059192;28;20037;-71
2021/11/15 10:55:40;;;;;;;0.30;0.30;;;;;;;6.54;79.04;102895.66;5059119;28;20039;-72
2021/11/15 10:58:19;;;;;;;0.20;0.20;;;;;;;6.55;79.24;102884.47;5076363;28;20028;-72
2021/11/15 11:00:57;;;;;;;0.63;0.60;;;;;;;6.54;79.13;102881.78;5059204;28;20299;-72
2021/11/15 11:03:25;;;;;;;0.20;0.20;;;;;;;6.53;78.96;102878.25;5060363;28;20029;-73
2021/11/15 11:05:53;;;;;;;0.20;0.20;;;;;;;6.54;79.35;102880.06;5076602;28;20063;-71
2021/11/15 11:08:31;;;;;;;0.27;0.27;;;;;;;6.52;79.15;102872.91;5075532;28;20043;-72
2021/11/15 11:11:07;;;;;;;0.20;0.20;;;;;;;6.50;78.91;102870.22;5075655;28;20039;-72
2021/11/15 11:13:44;;;;;;;0.30;0.30;;;;;;;6.49;79.35;102876.22;5077023;28;20056;-72
2021/11/15 11:16:10;;;;;;;0.20;0.20;;;;;;;6.46;79.34;102871.66;5075539;28;20518;-73
2021/11/15 11:18:38;;;;;;;0.10;0.10;;;;;;;6.47;79.36;102864.75;5058647;28;20119;-70
2021/11/15 11:26:33;;;;;;;0.20;0.20;;;;;;;6.44;79.68;102864.53;5076218;28;20044;-72
2021/11/15 11:29:02;;;;;;;0.20;0.20;;;;;;;6.39;79.37;102861.56;5076147;28;20024;-72
2021/11/15 11:31:30;;;;;;;0.20;0.20;;;;;;;6.43;79.28;102860.09;5058635;28;20291;-73
2021/11/15 11:33:56;;;;;;;0.30;0.30;;;;;;;6.49;79.07;102862.28;5059858;28;20337;-71
2021/11/15 11:36:22;;;;;;;0.20;0.20;;;;;;;6.46;79.25;102862.94;5062275;28;20056;-71
2021/11/15 11:38:48;;;;;;;0.13;0.13;;;;;;;6.44;79.21;102865.44;5079029;28;20051;-72